sensor_id;sensor_type;location;lat;lon;timestamp;temperature;humidity
11536;DHT22;5824;49.336;8.652;2022-11-15T00:00:44;10.60;1.00
11536;DHT22;5824;49.336;8.652;2022-11-15T00:03:10;10.70;1.00
11536;DHT22;5824;49.336;8.652;2022-11-15T00:05:35;10.70;1.00
11536;DHT22;5824;49.336;8.652;2022-11-15T00:08:01;10.70;1.00
11536;DHT22;5824;49.336;8.652;2022-11-15T00:10:27;10.70;1.00
11536;DHT22;5824;49.336;8.652;2022-11-15T00:12:52;10.70;1.00
11536;DHT22;5824;49.336;8.652;2022-11-15T00:15:18;10.70;1.00
11536;DHT22;5824;49.336;8.652;2022-11-15T00:17:43;10.80;1.00
11536;DHT22;5824;49.336;8.652;2022-11-15T00:20:09;11.10;1.00
11536;DHT22;5824;49.336;8.652;2022-11-15T00:22:36;11.10;1.00
11536;DHT22;5824;49.336;8.652;2022-11-15T00:25:02;11.20;1.00
11536;DHT22;5824;49.336;8.652;2022-11-15T00:27:28;11.30;1.00
11536;DHT22;5824;49.336;8.652;2022-11-15T00:29:54;11.30;1.00
11536;DHT22;5824;49.336;8.652;2022-11-15T00:32:19;11.40;1.00
11536;DHT22;5824;49.336;8.652;2022-11-15T00:34:45;11.50;1.00
11536;DHT22;5824;49.336;8.652;2022-11-15T00:37:10;11.60;1.00
11536;DHT22;5824;49.336;8.652;2022-11-15T00:39:36;11.70;1.00
11536;DHT22;5824;49.336;8.652;2022-11-15T00:42:01;11.70;1.00
11536;DHT22;5824;49.336;8.652;2022-11-15T00:44:27;11.70;1.00
11536;DHT22;5824;49.336;8.652;2022-11-15T00:46:52;11.70;1.00
11536;DHT22;5824;49.336;8.652;2022-11-15T00:49:18;11.60;1.00
11536;DHT22;5824;49.336;8.652;2022-11-15T00:51:43;11.60;1.00
11536;DHT22;5824;49.336;8.652;2022-11-15T00:54:09;11.60;1.00
11536;DHT22;5824;49.336;8.652;2022-11-15T00:56:34;11.60;1.00
11536;DHT22;5824;49.336;8.652;2022-11-15T00:59:00;11.60;1.00
11536;DHT22;5824;49.336;8.652;2022-11-15T01:01:25;11.60;1.00
11536;DHT22;5824;49.336;8.652;2022-11-15T01:03:51;11.60;1.00
11536;DHT22;5824;49.336;8.652;2022-11-15T01:06:16;11.60;1.00
11536;DHT22;5824;49.336;8.652;2022-11-15T01:08:42;11.60;1.00
11536;DHT22;5824;49.336;8.652;2022-11-15T01:11:10;11.60;1.00
11536;DHT22;5824;49.336;8.652;2022-11-15T01:13:37;11.60;1.00
11536;DHT22;5824;49.336;8.652;2022-11-15T01:16:14;11.60;1.00
11536;DHT22;5824;49.336;8.652;2022-11-15T01:18:41;11.50;1.00
11536;DHT22;5824;49.336;8.652;2022-11-15T01:21:09;11.50;1.00
11536;DHT22;5824;49.336;8.652;2022-11-15T01:23:35;11.40;1.00
11536;DHT22;5824;49.336;8.652;2022-11-15T01:26:01;11.40;1.00
11536;DHT22;5824;49.336;8.652;2022-11-15T01:28:32;11.30;1.00
11536;DHT22;5824;49.336;8.652;2022-11-15T01:31:02;11.20;1.00
11536;DHT22;5824;49.336;8.652;2022-11-15T01:33:29;11.20;1.00
11536;DHT22;5824;49.336;8.652;2022-11-15T01:35:55;11.10;1.00
11536;DHT22;5824;49.336;8.652;2022-11-15T01:38:21;11.00;1.00
11536;DHT22;5824;49.336;8.652;2022-11-15T01:40:47;11.00;1.00
11536;DHT22;5824;49.336;8.652;2022-11-15T01:43:23;10.90;1.00
11536;DHT22;5824;49.336;8.652;2022-11-15T01:46:02;10.90;1.00
11536;DHT22;5824;49.336;8.652;2022-11-15T01:48:32;10.90;1.00
11536;DHT22;5824;49.336;8.652;2022-11-15T01:51:01;10.90;1.00
11536;DHT22;5824;49.336;8.652;2022-11-15T01:53:27;10.90;1.00
11536;DHT22;5824;49.336;8.652;2022-11-15T01:55:55;11.00;1.00
11536;DHT22;5824;49.336;8.652;2022-11-15T01:58:21;10.90;1.00
11536;DHT22;5824;49.336;8.652;2022-11-15T02:00:47;11.00;1.00
11536;DHT22;5824;49.336;8.652;2022-11-15T02:03:15;11.00;1.00
11536;DHT22;5824;49.336;8.652;2022-11-15T02:05:41;11.00;1.00
11536;DHT22;5824;49.336;8.652;2022-11-15T02:08:08;11.00;1.00
11536;DHT22;5824;49.336;8.652;2022-11-15T02:10:34;11.00;1.00
11536;DHT22;5824;49.336;8.652;2022-11-15T02:13:00;11.00;1.00
11536;DHT22;5824;49.336;8.652;2022-11-15T02:15:32;11.10;1.00
11536;DHT22;5824;49.336;8.652;2022-11-15T02:18:11;11.10;1.00
11536;DHT22;5824;49.336;8.652;2022-11-15T02:21:02;11.10;1.00
11536;DHT22;5824;49.336;8.652;2022-11-15T02:27:05;11.00;1.00
11536;DHT22;5824;49.336;8.652;2022-11-15T02:33:10;11.00;1.00
11536;DHT22;5824;49.336;8.652;2022-11-15T02:35:45;10.90;1.00
11536;DHT22;5824;49.336;8.652;2022-11-15T02:41:03;10.60;1.00
11536;DHT22;5824;49.336;8.652;2022-11-15T02:43:45;10.60;1.00
11536;DHT22;5824;49.336;8.652;2022-11-15T02:46:37;10.60;1.00
11536;DHT22;5824;49.336;8.652;2022-11-15T02:49:25;10.50;1.00
11536;DHT22;5824;49.336;8.652;2022-11-15T02:51:51;10.40;1.00
11536;DHT22;5824;49.336;8.652;2022-11-15T02:54:22;10.40;1.00
11536;DHT22;5824;49.336;8.652;2022-11-15T02:56:50;10.40;1.00
11536;DHT22;5824;49.336;8.652;2022-11-15T03:04:32;10.10;1.00
11536;DHT22;5824;49.336;8.652;2022-11-15T03:07:11;10.10;1.00
11536;DHT22;5824;49.336;8.652;2022-11-15T03:09:54;10.20;1.00
11536;DHT22;5824;49.336;8.652;2022-11-15T03:12:28;10.20;1.00
11536;DHT22;5824;49.336;8.652;2022-11-15T03:15:04;10.30;1.00
11536;DHT22;5824;49.336;8.652;2022-11-15T03:17:40;10.30;1.00
11536;DHT22;5824;49.336;8.652;2022-11-15T03:20:08;10.30;1.00
11536;DHT22;5824;49.336;8.652;2022-11-15T03:22:42;10.30;1.00
11536;DHT22;5824;49.336;8.652;2022-11-15T03:25:10;10.30;1.00
11536;DHT22;5824;49.336;8.652;2022-11-15T03:27:44;10.20;1.00
11536;DHT22;5824;49.336;8.652;2022-11-15T03:30:12;10.20;1.00
11536;DHT22;5824;49.336;8.652;2022-11-15T03:32:49;10.20;1.00
11536;DHT22;5824;49.336;8.652;2022-11-15T03:35:21;10.20;1.00
11536;DHT22;5824;49.336;8.652;2022-11-15T03:38:11;10.10;1.00
11536;DHT22;5824;49.336;8.652;2022-11-15T03:43:36;10.30;1.00
11536;DHT22;5824;49.336;8.652;2022-11-15T03:48:42;10.40;1.00
11536;DHT22;5824;49.336;8.652;2022-11-15T03:51:08;10.50;1.00
11536;DHT22;5824;49.336;8.652;2022-11-15T03:53:34;10.50;1.00
11536;DHT22;5824;49.336;8.652;2022-11-15T03:56:00;10.60;1.00
11536;DHT22;5824;49.336;8.652;2022-11-15T03:58:25;10.70;1.00
11536;DHT22;5824;49.336;8.652;2022-11-15T04:00:51;11.10;1.00
11536;DHT22;5824;49.336;8.652;2022-11-15T04:03:16;11.10;1.00
11536;DHT22;5824;49.336;8.652;2022-11-15T04:05:42;11.20;1.00
11536;DHT22;5824;49.336;8.652;2022-11-15T04:08:07;11.40;1.00
11536;DHT22;5824;49.336;8.652;2022-11-15T04:10:33;11.50;1.00
11536;DHT22;5824;49.336;8.652;2022-11-15T04:12:58;11.60;1.00
11536;DHT22;5824;49.336;8.652;2022-11-15T04:15:24;11.70;1.00
11536;DHT22;5824;49.336;8.652;2022-11-15T04:17:52;11.80;1.00
11536;DHT22;5824;49.336;8.652;2022-11-15T04:20:27;11.80;1.00
11536;DHT22;5824;49.336;8.652;2022-11-15T04:23:16;11.90;1.00
11536;DHT22;5824;49.336;8.652;2022-11-15T04:26:12;11.80;1.00
11536;DHT22;5824;49.336;8.652;2022-11-15T04:28:38;11.90;1.00
11536;DHT22;5824;49.336;8.652;2022-11-15T04:31:23;12.00;1.00
11536;DHT22;5824;49.336;8.652;2022-11-15T04:33:48;12.00;1.00
11536;DHT22;5824;49.336;8.652;2022-11-15T04:36:14;12.00;1.00
11536;DHT22;5824;49.336;8.652;2022-11-15T04:38:58;12.00;1.00
11536;DHT22;5824;49.336;8.652;2022-11-15T04:41:24;12.00;1.00
11536;DHT22;5824;49.336;8.652;2022-11-15T04:43:49;12.00;1.00
11536;DHT22;5824;49.336;8.652;2022-11-15T04:46:15;11.90;1.00
11536;DHT22;5824;49.336;8.652;2022-11-15T04:48:40;11.80;1.00
11536;DHT22;5824;49.336;8.652;2022-11-15T04:51:06;11.80;1.00
11536;DHT22;5824;49.336;8.652;2022-11-15T04:53:31;11.80;1.00
11536;DHT22;5824;49.336;8.652;2022-11-15T04:55:57;11.70;1.00
11536;DHT22;5824;49.336;8.652;2022-11-15T04:58:22;11.70;1.00
11536;DHT22;5824;49.336;8.652;2022-11-15T05:00:48;11.70;1.00
11536;DHT22;5824;49.336;8.652;2022-11-15T05:03:13;11.60;1.00
11536;DHT22;5824;49.336;8.652;2022-11-15T05:05:58;11.60;1.00
11536;DHT22;5824;49.336;8.652;2022-11-15T05:08:24;13.00;1.00
11536;DHT22;5824;49.336;8.652;2022-11-15T05:10:50;11.40;1.00
11536;DHT22;5824;49.336;8.652;2022-11-15T05:13:16;11.30;1.00
11536;DHT22;5824;49.336;8.652;2022-11-15T05:15:41;11.20;1.00
11536;DHT22;5824;49.336;8.652;2022-11-15T05:18:07;11.20;1.00
11536;DHT22;5824;49.336;8.652;2022-11-15T05:20:32;11.20;1.00
11536;DHT22;5824;49.336;8.652;2022-11-15T05:22:58;11.20;1.00
11536;DHT22;5824;49.336;8.652;2022-11-15T05:25:24;11.20;1.00
11536;DHT22;5824;49.336;8.652;2022-11-15T05:27:49;11.30;1.00
11536;DHT22;5824;49.336;8.652;2022-11-15T05:30:15;11.30;1.00
11536;DHT22;5824;49.336;8.652;2022-11-15T05:32:42;11.40;1.00
11536;DHT22;5824;49.336;8.652;2022-11-15T05:35:13;11.40;1.00
11536;DHT22;5824;49.336;8.652;2022-11-15T05:37:40;11.40;1.00
11536;DHT22;5824;49.336;8.652;2022-11-15T05:40:06;11.40;1.00
11536;DHT22;5824;49.336;8.652;2022-11-15T05:42:32;11.50;1.00
11536;DHT22;5824;49.336;8.652;2022-11-15T05:44:59;11.50;1.00
11536;DHT22;5824;49.336;8.652;2022-11-15T05:47:27;11.50;1.00
11536;DHT22;5824;49.336;8.652;2022-11-15T05:49:55;11.60;1.00
11536;DHT22;5824;49.336;8.652;2022-11-15T05:52:25;11.60;1.00
11536;DHT22;5824;49.336;8.652;2022-11-15T05:54:52;11.60;1.00
11536;DHT22;5824;49.336;8.652;2022-11-15T05:57:18;11.60;1.00
11536;DHT22;5824;49.336;8.652;2022-11-15T05:59:44;11.60;1.00
11536;DHT22;5824;49.336;8.652;2022-11-15T06:02:10;11.70;1.00
11536;DHT22;5824;49.336;8.652;2022-11-15T06:04:36;11.70;1.00
11536;DHT22;5824;49.336;8.652;2022-11-15T06:07:02;11.60;1.00
11536;DHT22;5824;49.336;8.652;2022-11-15T06:09:27;11.70;1.00
11536;DHT22;5824;49.336;8.652;2022-11-15T06:11:53;11.70;1.00
11536;DHT22;5824;49.336;8.652;2022-11-15T06:14:19;11.70;1.00
11536;DHT22;5824;49.336;8.652;2022-11-15T06:16:44;11.70;1.00
11536;DHT22;5824;49.336;8.652;2022-11-15T06:19:10;11.70;1.00
11536;DHT22;5824;49.336;8.652;2022-11-15T06:21:35;11.70;1.00
11536;DHT22;5824;49.336;8.652;2022-11-15T06:24:01;11.80;1.00
11536;DHT22;5824;49.336;8.652;2022-11-15T06:26:26;11.80;1.00
11536;DHT22;5824;49.336;8.652;2022-11-15T06:28:52;12.00;1.00
11536;DHT22;5824;49.336;8.652;2022-11-15T06:31:17;11.80;1.00
11536;DHT22;5824;49.336;8.652;2022-11-15T06:33:43;11.80;1.00
11536;DHT22;5824;49.336;8.652;2022-11-15T06:36:12;11.90;1.00
11536;DHT22;5824;49.336;8.652;2022-11-15T06:38:42;11.90;1.00
11536;DHT22;5824;49.336;8.652;2022-11-15T06:41:10;11.90;1.00
11536;DHT22;5824;49.336;8.652;2022-11-15T06:43:36;11.90;1.00
11536;DHT22;5824;49.336;8.652;2022-11-15T06:46:03;11.90;1.00
11536;DHT22;5824;49.336;8.652;2022-11-15T06:48:30;11.90;1.00
11536;DHT22;5824;49.336;8.652;2022-11-15T06:50:58;11.90;1.00
11536;DHT22;5824;49.336;8.652;2022-11-15T06:53:24;12.00;1.00
11536;DHT22;5824;49.336;8.652;2022-11-15T06:55:50;12.00;1.00
11536;DHT22;5824;49.336;8.652;2022-11-15T06:58:15;12.00;1.00
11536;DHT22;5824;49.336;8.652;2022-11-15T07:00:41;12.00;1.00
11536;DHT22;5824;49.336;8.652;2022-11-15T07:03:07;12.00;1.00
11536;DHT22;5824;49.336;8.652;2022-11-15T07:05:33;11.90;1.00
11536;DHT22;5824;49.336;8.652;2022-11-15T07:07:59;11.90;1.00
11536;DHT22;5824;49.336;8.652;2022-11-15T07:10:25;11.90;1.00
11536;DHT22;5824;49.336;8.652;2022-11-15T07:12:52;11.90;1.00
11536;DHT22;5824;49.336;8.652;2022-11-15T07:15:18;12.00;1.00
11536;DHT22;5824;49.336;8.652;2022-11-15T07:17:44;12.20;1.00
11536;DHT22;5824;49.336;8.652;2022-11-15T07:20:10;12.40;1.00
11536;DHT22;5824;49.336;8.652;2022-11-15T07:22:36;12.60;1.00
11536;DHT22;5824;49.336;8.652;2022-11-15T07:25:02;12.80;1.00
11536;DHT22;5824;49.336;8.652;2022-11-15T07:27:28;12.90;1.00
11536;DHT22;5824;49.336;8.652;2022-11-15T07:29:53;13.00;1.00
11536;DHT22;5824;49.336;8.652;2022-11-15T07:32:19;13.10;1.00
11536;DHT22;5824;49.336;8.652;2022-11-15T07:34:44;13.00;1.00
11536;DHT22;5824;49.336;8.652;2022-11-15T07:37:11;13.00;1.00
11536;DHT22;5824;49.336;8.652;2022-11-15T07:39:37;12.90;1.00
11536;DHT22;5824;49.336;8.652;2022-11-15T07:42:03;12.90;1.00
11536;DHT22;5824;49.336;8.652;2022-11-15T07:44:47;12.90;1.00
11536;DHT22;5824;49.336;8.652;2022-11-15T07:47:12;12.90;1.00
11536;DHT22;5824;49.336;8.652;2022-11-15T07:49:38;13.00;1.00
11536;DHT22;5824;49.336;8.652;2022-11-15T07:52:04;13.10;1.00
11536;DHT22;5824;49.336;8.652;2022-11-15T07:54:29;13.20;1.00
11536;DHT22;5824;49.336;8.652;2022-11-15T07:56:55;13.20;1.00
11536;DHT22;5824;49.336;8.652;2022-11-15T07:59:20;13.30;1.00
11536;DHT22;5824;49.336;8.652;2022-11-15T08:01:46;13.40;1.00
11536;DHT22;5824;49.336;8.652;2022-11-15T08:04:12;13.40;1.00
11536;DHT22;5824;49.336;8.652;2022-11-15T08:06:37;13.50;1.00
11536;DHT22;5824;49.336;8.652;2022-11-15T08:09:03;13.40;1.00
11536;DHT22;5824;49.336;8.652;2022-11-15T08:11:29;13.50;1.00
11536;DHT22;5824;49.336;8.652;2022-11-15T08:13:54;13.50;1.00
11536;DHT22;5824;49.336;8.652;2022-11-15T08:16:20;13.50;1.00
11536;DHT22;5824;49.336;8.652;2022-11-15T08:18:46;13.50;1.00
11536;DHT22;5824;49.336;8.652;2022-11-15T08:21:14;13.60;1.00
11536;DHT22;5824;49.336;8.652;2022-11-15T08:23:42;13.60;1.00
11536;DHT22;5824;49.336;8.652;2022-11-15T08:26:08;13.70;1.00
11536;DHT22;5824;49.336;8.652;2022-11-15T08:28:34;13.80;1.00
11536;DHT22;5824;49.336;8.652;2022-11-15T08:31:00;13.90;1.00
11536;DHT22;5824;49.336;8.652;2022-11-15T08:33:26;14.00;1.00
11536;DHT22;5824;49.336;8.652;2022-11-15T08:35:59;14.10;1.00
11536;DHT22;5824;49.336;8.652;2022-11-15T08:38:25;14.20;1.00
11536;DHT22;5824;49.336;8.652;2022-11-15T08:41:02;14.30;1.00
11536;DHT22;5824;49.336;8.652;2022-11-15T08:43:29;14.30;1.00
11536;DHT22;5824;49.336;8.652;2022-11-15T08:45:58;14.30;1.00
11536;DHT22;5824;49.336;8.652;2022-11-15T08:48:23;14.30;1.00
11536;DHT22;5824;49.336;8.652;2022-11-15T08:50:52;14.20;1.00
11536;DHT22;5824;49.336;8.652;2022-11-15T08:53:18;14.20;1.00
11536;DHT22;5824;49.336;8.652;2022-11-15T08:55:43;14.30;1.00
11536;DHT22;5824;49.336;8.652;2022-11-15T08:58:09;14.40;1.00
11536;DHT22;5824;49.336;8.652;2022-11-15T09:00:34;14.60;1.00
11536;DHT22;5824;49.336;8.652;2022-11-15T09:03:04;14.70;1.00
11536;DHT22;5824;49.336;8.652;2022-11-15T09:05:30;14.70;1.00
11536;DHT22;5824;49.336;8.652;2022-11-15T09:07:55;14.80;1.00
11536;DHT22;5824;49.336;8.652;2022-11-15T09:10:21;14.80;1.00
11536;DHT22;5824;49.336;8.652;2022-11-15T09:12:47;14.80;1.00
11536;DHT22;5824;49.336;8.652;2022-11-15T09:15:16;14.90;1.00
11536;DHT22;5824;49.336;8.652;2022-11-15T09:17:42;15.00;1.00
11536;DHT22;5824;49.336;8.652;2022-11-15T09:20:08;15.00;1.00
11536;DHT22;5824;49.336;8.652;2022-11-15T09:22:34;15.10;1.00
11536;DHT22;5824;49.336;8.652;2022-11-15T09:25:00;15.30;1.00
11536;DHT22;5824;49.336;8.652;2022-11-15T09:27:29;15.60;1.00
11536;DHT22;5824;49.336;8.652;2022-11-15T09:29:55;15.90;1.00
11536;DHT22;5824;49.336;8.652;2022-11-15T09:32:21;16.10;1.00
11536;DHT22;5824;49.336;8.652;2022-11-15T09:34:50;16.30;1.00
11536;DHT22;5824;49.336;8.652;2022-11-15T09:37:16;16.40;1.00
11536;DHT22;5824;49.336;8.652;2022-11-15T09:39:41;16.40;1.00
11536;DHT22;5824;49.336;8.652;2022-11-15T09:42:22;16.40;1.00
11536;DHT22;5824;49.336;8.652;2022-11-15T09:45:04;16.40;1.00
11536;DHT22;5824;49.336;8.652;2022-11-15T09:50:43;16.40;1.00
11536;DHT22;5824;49.336;8.652;2022-11-15T09:53:22;16.30;1.00
11536;DHT22;5824;49.336;8.652;2022-11-15T09:56:00;16.20;1.00
11536;DHT22;5824;49.336;8.652;2022-11-15T09:58:37;16.40;1.00
11536;DHT22;5824;49.336;8.652;2022-11-15T10:01:13;16.10;1.00
11536;DHT22;5824;49.336;8.652;2022-11-15T10:03:41;16.20;1.00
11536;DHT22;5824;49.336;8.652;2022-11-15T10:06:23;16.20;1.00
11536;DHT22;5824;49.336;8.652;2022-11-15T10:08:58;16.10;1.00
11536;DHT22;5824;49.336;8.652;2022-11-15T10:11:28;16.10;1.00
11536;DHT22;5824;49.336;8.652;2022-11-15T10:13:58;16.10;1.00
11536;DHT22;5824;49.336;8.652;2022-11-15T10:19:56;16.10;1.00
11536;DHT22;5824;49.336;8.652;2022-11-15T10:22:52;16.20;1.00
11536;DHT22;5824;49.336;8.652;2022-11-15T10:25:28;16.10;1.00
11536;DHT22;5824;49.336;8.652;2022-11-15T10:28:21;16.00;1.00
11536;DHT22;5824;49.336;8.652;2022-11-15T10:30:53;15.90;1.00
11536;DHT22;5824;49.336;8.652;2022-11-15T10:33:40;15.90;1.00
11536;DHT22;5824;49.336;8.652;2022-11-15T10:38:49;15.60;1.00
11536;DHT22;5824;49.336;8.652;2022-11-15T10:46:37;15.80;1.00
11536;DHT22;5824;49.336;8.652;2022-11-15T10:49:21;15.90;1.00
11536;DHT22;5824;49.336;8.652;2022-11-15T10:51:53;16.00;1.00
11536;DHT22;5824;49.336;8.652;2022-11-15T10:54:33;16.00;1.00
11536;DHT22;5824;49.336;8.652;2022-11-15T10:57:04;16.20;1.00
11536;DHT22;5824;49.336;8.652;2022-11-15T10:59:32;16.30;1.00
11536;DHT22;5824;49.336;8.652;2022-11-15T11:01:59;16.40;1.00
11536;DHT22;5824;49.336;8.652;2022-11-15T11:04:25;16.30;1.00
11536;DHT22;5824;49.336;8.652;2022-11-15T11:06:57;16.30;1.00
11536;DHT22;5824;49.336;8.652;2022-11-15T11:09:34;16.30;1.00
11536;DHT22;5824;49.336;8.652;2022-11-15T11:12:02;16.20;1.00
11536;DHT22;5824;49.336;8.652;2022-11-15T11:14:35;16.20;1.00
11536;DHT22;5824;49.336;8.652;2022-11-15T11:17:41;16.20;1.00
11536;DHT22;5824;49.336;8.652;2022-11-15T11:25:40;17.00;1.00
11536;DHT22;5824;49.336;8.652;2022-11-15T11:28:53;17.20;1.00
11536;DHT22;5824;49.336;8.652;2022-11-15T11:31:35;17.00;1.00
11536;DHT22;5824;49.336;8.652;2022-11-15T11:37:14;17.60;1.00
11536;DHT22;5824;49.336;8.652;2022-11-15T11:42:24;17.80;1.00
11536;DHT22;5824;49.336;8.652;2022-11-15T11:47:37;17.60;1.00
11536;DHT22;5824;49.336;8.652;2022-11-15T11:50:13;17.40;1.00
11536;DHT22;5824;49.336;8.652;2022-11-15T11:55:36;17.10;1.00
11536;DHT22;5824;49.336;8.652;2022-11-15T11:58:33;16.90;1.00
11536;DHT22;5824;49.336;8.652;2022-11-15T12:01:10;16.70;1.00
11536;DHT22;5824;49.336;8.652;2022-11-15T12:08:58;16.60;1.00
11536;DHT22;5824;49.336;8.652;2022-11-15T12:12:08;16.70;1.00
11536;DHT22;5824;49.336;8.652;2022-11-15T12:14:51;16.60;1.00
11536;DHT22;5824;49.336;8.652;2022-11-15T12:17:25;16.60;1.00
11536;DHT22;5824;49.336;8.652;2022-11-15T12:19:55;16.60;1.00
11536;DHT22;5824;49.336;8.652;2022-11-15T12:22:38;16.40;1.00
11536;DHT22;5824;49.336;8.652;2022-11-15T12:25:15;16.40;1.00
11536;DHT22;5824;49.336;8.652;2022-11-15T12:28:00;16.20;1.00
11536;DHT22;5824;49.336;8.652;2022-11-15T12:30:40;16.00;1.00
11536;DHT22;5824;49.336;8.652;2022-11-15T12:33:30;15.80;1.00
11536;DHT22;5824;49.336;8.652;2022-11-15T12:36:02;15.60;1.00
11536;DHT22;5824;49.336;8.652;2022-11-15T12:38:53;15.50;1.00
11536;DHT22;5824;49.336;8.652;2022-11-15T12:41:20;15.40;1.00
11536;DHT22;5824;49.336;8.652;2022-11-15T12:43:47;15.30;1.00
11536;DHT22;5824;49.336;8.652;2022-11-15T13:00:01;15.40;1.00
11536;DHT22;5824;49.336;8.652;2022-11-15T13:02:36;15.70;1.00
11536;DHT22;5824;49.336;8.652;2022-11-15T13:17:45;16.50;1.00
11536;DHT22;5824;49.336;8.652;2022-11-15T13:22:52;16.70;1.00
11536;DHT22;5824;49.336;8.652;2022-11-15T13:35:51;16.20;1.00
11536;DHT22;5824;49.336;8.652;2022-11-15T13:40:49;16.30;1.00
11536;DHT22;5824;49.336;8.652;2022-11-15T13:46:16;16.40;1.00
11536;DHT22;5824;49.336;8.652;2022-11-15T13:48:43;16.50;1.00
11536;DHT22;5824;49.336;8.652;2022-11-15T13:51:16;16.70;1.00
11536;DHT22;5824;49.336;8.652;2022-11-15T13:53:46;16.80;1.00
11536;DHT22;5824;49.336;8.652;2022-11-15T13:56:15;16.80;1.00
11536;DHT22;5824;49.336;8.652;2022-11-15T13:58:42;16.90;1.00
11536;DHT22;5824;49.336;8.652;2022-11-15T14:01:15;17.00;1.00
11536;DHT22;5824;49.336;8.652;2022-11-15T14:03:54;17.30;1.00
11536;DHT22;5824;49.336;8.652;2022-11-15T14:06:22;17.40;1.00
11536;DHT22;5824;49.336;8.652;2022-11-15T14:11:23;17.10;1.00
11536;DHT22;5824;49.336;8.652;2022-11-15T14:16:53;17.00;1.00
11536;DHT22;5824;49.336;8.652;2022-11-15T14:22:15;16.90;1.00
11536;DHT22;5824;49.336;8.652;2022-11-15T14:24:43;16.50;1.00
11536;DHT22;5824;49.336;8.652;2022-11-15T14:27:28;16.50;1.00
11536;DHT22;5824;49.336;8.652;2022-11-15T14:29:54;16.30;1.00
11536;DHT22;5824;49.336;8.652;2022-11-15T14:32:21;16.10;1.00
11536;DHT22;5824;49.336;8.652;2022-11-15T14:34:49;16.10;1.00
11536;DHT22;5824;49.336;8.652;2022-11-15T14:37:27;16.00;1.00
11536;DHT22;5824;49.336;8.652;2022-11-15T14:39:54;15.90;1.00
11536;DHT22;5824;49.336;8.652;2022-11-15T14:42:21;15.80;1.00
11536;DHT22;5824;49.336;8.652;2022-11-15T14:44:47;15.80;1.00
11536;DHT22;5824;49.336;8.652;2022-11-15T14:47:13;15.70;1.00
11536;DHT22;5824;49.336;8.652;2022-11-15T14:49:39;15.50;1.00
11536;DHT22;5824;49.336;8.652;2022-11-15T14:52:25;15.30;1.00
11536;DHT22;5824;49.336;8.652;2022-11-15T14:54:53;15.30;1.00
11536;DHT22;5824;49.336;8.652;2022-11-15T14:57:19;15.20;1.00
11536;DHT22;5824;49.336;8.652;2022-11-15T14:59:44;15.20;1.00
11536;DHT22;5824;49.336;8.652;2022-11-15T15:02:22;15.20;1.00
11536;DHT22;5824;49.336;8.652;2022-11-15T15:04:48;15.20;1.00
11536;DHT22;5824;49.336;8.652;2022-11-15T15:07:14;15.20;1.00
11536;DHT22;5824;49.336;8.652;2022-11-15T15:09:40;15.10;1.00
11536;DHT22;5824;49.336;8.652;2022-11-15T15:12:24;14.90;1.00
11536;DHT22;5824;49.336;8.652;2022-11-15T15:14:50;14.90;1.00
11536;DHT22;5824;49.336;8.652;2022-11-15T15:17:16;14.80;1.00
11536;DHT22;5824;49.336;8.652;2022-11-15T15:19:42;14.70;1.00
11536;DHT22;5824;49.336;8.652;2022-11-15T15:22:17;14.70;1.00
11536;DHT22;5824;49.336;8.652;2022-11-15T15:24:44;14.70;1.00
11536;DHT22;5824;49.336;8.652;2022-11-15T15:27:10;14.70;1.00
11536;DHT22;5824;49.336;8.652;2022-11-15T15:29:36;14.70;1.00
11536;DHT22;5824;49.336;8.652;2022-11-15T15:32:02;14.70;1.00
11536;DHT22;5824;49.336;8.652;2022-11-15T15:34:27;14.70;1.00
11536;DHT22;5824;49.336;8.652;2022-11-15T15:37:22;14.60;1.00
11536;DHT22;5824;49.336;8.652;2022-11-15T15:39:53;14.60;1.00
11536;DHT22;5824;49.336;8.652;2022-11-15T15:42:19;14.60;1.00
11536;DHT22;5824;49.336;8.652;2022-11-15T15:44:46;14.60;1.00
11536;DHT22;5824;49.336;8.652;2022-11-15T15:47:17;14.50;1.00
11536;DHT22;5824;49.336;8.652;2022-11-15T15:49:43;14.50;1.00
11536;DHT22;5824;49.336;8.652;2022-11-15T15:52:08;14.50;1.00
11536;DHT22;5824;49.336;8.652;2022-11-15T15:54:34;14.50;1.00
11536;DHT22;5824;49.336;8.652;2022-11-15T15:57:00;14.50;1.00
11536;DHT22;5824;49.336;8.652;2022-11-15T15:59:25;14.50;1.00
11536;DHT22;5824;49.336;8.652;2022-11-15T16:01:51;14.70;1.00
11536;DHT22;5824;49.336;8.652;2022-11-15T16:04:16;14.50;1.00
11536;DHT22;5824;49.336;8.652;2022-11-15T16:06:43;14.50;1.00
11536;DHT22;5824;49.336;8.652;2022-11-15T16:09:13;14.50;1.00
11536;DHT22;5824;49.336;8.652;2022-11-15T16:11:40;14.50;1.00
11536;DHT22;5824;49.336;8.652;2022-11-15T16:14:07;14.50;1.00
11536;DHT22;5824;49.336;8.652;2022-11-15T16:16:33;14.50;1.00
11536;DHT22;5824;49.336;8.652;2022-11-15T16:18:59;14.50;1.00
11536;DHT22;5824;49.336;8.652;2022-11-15T16:21:26;14.40;1.00
11536;DHT22;5824;49.336;8.652;2022-11-15T16:23:52;14.40;1.00
11536;DHT22;5824;49.336;8.652;2022-11-15T16:26:27;14.40;1.00
11536;DHT22;5824;49.336;8.652;2022-11-15T16:28:53;14.40;1.00
11536;DHT22;5824;49.336;8.652;2022-11-15T16:31:19;14.40;1.00
11536;DHT22;5824;49.336;8.652;2022-11-15T16:33:48;14.50;1.00
11536;DHT22;5824;49.336;8.652;2022-11-15T16:36:24;14.40;1.00
11536;DHT22;5824;49.336;8.652;2022-11-15T16:38:50;15.00;1.00
11536;DHT22;5824;49.336;8.652;2022-11-15T16:41:17;14.40;1.00
11536;DHT22;5824;49.336;8.652;2022-11-15T16:43:46;14.50;1.00
11536;DHT22;5824;49.336;8.652;2022-11-15T16:46:21;14.50;1.00
11536;DHT22;5824;49.336;8.652;2022-11-15T16:48:48;14.50;1.00
11536;DHT22;5824;49.336;8.652;2022-11-15T16:51:14;14.50;1.00
11536;DHT22;5824;49.336;8.652;2022-11-15T16:53:40;14.50;1.00
11536;DHT22;5824;49.336;8.652;2022-11-15T16:56:22;14.50;1.00
11536;DHT22;5824;49.336;8.652;2022-11-15T16:58:49;14.60;1.00
11536;DHT22;5824;49.336;8.652;2022-11-15T17:01:23;14.60;1.00
11536;DHT22;5824;49.336;8.652;2022-11-15T17:03:49;14.90;1.00
11536;DHT22;5824;49.336;8.652;2022-11-15T17:06:14;14.70;1.00
11536;DHT22;5824;49.336;8.652;2022-11-15T17:08:43;14.60;1.00
11536;DHT22;5824;49.336;8.652;2022-11-15T17:11:10;14.70;1.00
11536;DHT22;5824;49.336;8.652;2022-11-15T17:13:37;14.70;1.00
11536;DHT22;5824;49.336;8.652;2022-11-15T17:16:08;14.70;1.00
11536;DHT22;5824;49.336;8.652;2022-11-15T17:18:34;15.70;1.00
11536;DHT22;5824;49.336;8.652;2022-11-15T17:21:09;14.70;1.00
11536;DHT22;5824;49.336;8.652;2022-11-15T17:23:36;14.70;1.00
11536;DHT22;5824;49.336;8.652;2022-11-15T17:26:03;14.70;1.00
11536;DHT22;5824;49.336;8.652;2022-11-15T17:28:31;14.60;1.00
11536;DHT22;5824;49.336;8.652;2022-11-15T17:30:56;14.60;1.00
11536;DHT22;5824;49.336;8.652;2022-11-15T17:33:22;14.60;1.00
11536;DHT22;5824;49.336;8.652;2022-11-15T17:35:56;14.60;1.00
11536;DHT22;5824;49.336;8.652;2022-11-15T17:38:21;14.60;1.00
11536;DHT22;5824;49.336;8.652;2022-11-15T17:40:47;14.60;1.00
11536;DHT22;5824;49.336;8.652;2022-11-15T17:43:13;14.60;1.00
11536;DHT22;5824;49.336;8.652;2022-11-15T17:45:41;14.60;1.00
11536;DHT22;5824;49.336;8.652;2022-11-15T17:48:07;14.60;1.00
11536;DHT22;5824;49.336;8.652;2022-11-15T17:50:32;14.60;1.00
11536;DHT22;5824;49.336;8.652;2022-11-15T17:52:58;14.60;1.00
11536;DHT22;5824;49.336;8.652;2022-11-15T17:55:24;14.60;1.00
11536;DHT22;5824;49.336;8.652;2022-11-15T17:57:50;14.60;1.00
11536;DHT22;5824;49.336;8.652;2022-11-15T18:00:16;14.70;1.00
11536;DHT22;5824;49.336;8.652;2022-11-15T18:02:43;14.60;1.00
11536;DHT22;5824;49.336;8.652;2022-11-15T18:05:09;14.60;1.00
11536;DHT22;5824;49.336;8.652;2022-11-15T18:07:34;14.70;1.00